Terminal Aerodrome Forecast
Issued by NWS Blacksburg, VA

Home | Current Version | Previous Version | Text Only | Print | Product List | Glossary On
Versions: 1 2 3 4 5 6 7 8 9 10 11 12 13 14 15 16 17
000
FTUS41 KRNK 222103 AAA
TAFBLF
TAF AMD
KBLF 222103Z 2221/2318 25012G20KT 4SM TSRA SCT025CB OVC035
     FM222200 27008KT P6SM -SHRA SCT045 OVC100
     FM230200 VRB03KT 6SM BR OVC022
     FM230600 30003KT 4SM BR OVC005
     FM231500 10004KT 3SM -RA BR OVC005=

USA.gov is the U.S. government's official web portal to all federal, state and local government web resources and services.